createdAt,value
2019-03-23T00:01:36.435Z,41.77
2019-03-23T00:04:08.111Z,38.70
2019-03-23T00:06:39.819Z,39.17
2019-03-23T00:09:11.593Z,35.87
2019-03-23T00:11:43.351Z,38.50
2019-03-23T00:14:16.783Z,41.10
2019-03-23T00:16:48.274Z,40.73
2019-03-23T00:19:19.950Z,39.47
2019-03-23T00:21:51.622Z,38.37
2019-03-23T00:24:23.287Z,39.83
2019-03-23T00:26:54.987Z,38.63
2019-03-23T00:29:26.696Z,38.13
2019-03-23T00:31:58.386Z,37.27
2019-03-23T00:34:30.064Z,37.73
2019-03-23T00:37:01.514Z,37.83
2019-03-23T00:39:33.199Z,36.60
2019-03-23T00:42:04.964Z,38.10
2019-03-23T00:44:36.639Z,35.87
2019-03-23T00:47:08.334Z,35.77
2019-03-23T00:49:39.993Z,36.13
2019-03-23T00:52:12.211Z,35.20
2019-03-23T00:54:43.889Z,34.63
2019-03-23T00:57:15.571Z,34.73
2019-03-23T00:59:47.495Z,35.53
2019-03-23T01:02:19.251Z,34.13
2019-03-23T01:04:51.187Z,32.90
2019-03-23T01:07:22.883Z,33.47
2019-03-23T01:09:54.620Z,33.77
2019-03-23T01:12:26.583Z,33.20
2019-03-23T01:14:58.248Z,32.23
2019-03-23T01:17:29.933Z,31.47
2019-03-23T01:20:01.864Z,32.73
2019-03-23T01:22:33.619Z,32.40
2019-03-23T01:25:06.482Z,31.00
2019-03-23T01:27:38.423Z,32.60
2019-03-23T01:30:11.556Z,30.07
2019-03-23T01:32:43.243Z,30.50
2019-03-23T01:35:15.068Z,31.40
2019-03-23T01:37:46.498Z,30.93
2019-03-23T01:40:18.007Z,31.77
2019-03-23T01:42:49.447Z,31.73
2019-03-23T01:45:20.882Z,29.50
2019-03-23T01:47:52.681Z,32.33
2019-03-23T01:50:24.426Z,29.47
2019-03-23T01:52:57.183Z,29.53
2019-03-23T01:55:28.852Z,31.97
2019-03-23T01:58:00.302Z,31.37
2019-03-23T02:00:33.377Z,28.70
2019-03-23T02:03:05.167Z,28.83
2019-03-23T02:05:36.856Z,29.23
2019-03-23T02:08:08.819Z,28.90
2019-03-23T02:10:41.961Z,28.30
2019-03-23T02:13:13.891Z,27.57
2019-03-23T02:15:45.584Z,29.23
2019-03-23T02:18:17.276Z,26.90
2019-03-23T02:20:48.947Z,28.97
2019-03-23T02:23:20.631Z,28.87
2019-03-23T02:25:52.315Z,29.23
2019-03-23T02:28:24.059Z,27.03
2019-03-23T02:30:56.131Z,26.37
2019-03-23T02:33:27.570Z,27.93
2019-03-23T02:35:58.999Z,26.77
2019-03-23T02:38:30.676Z,24.37
2019-03-23T02:41:02.363Z,24.30
2019-03-23T02:43:33.805Z,25.77
2019-03-23T02:46:05.547Z,24.73
2019-03-23T02:48:37.308Z,21.13
2019-03-23T02:51:09.293Z,19.27
2019-03-23T02:53:41.816Z,19.70
2019-03-23T02:56:14.553Z,23.67
2019-03-23T02:58:46.227Z,26.20
2019-03-23T03:01:17.895Z,21.97
2019-03-23T03:03:49.392Z,19.30
2019-03-23T03:06:21.076Z,18.43
2019-03-23T03:08:52.521Z,21.47
2019-03-23T03:11:24.191Z,24.23
2019-03-23T03:13:56.696Z,25.90
2019-03-23T03:16:28.812Z,25.43
2019-03-23T03:19:00.546Z,22.67
2019-03-23T03:21:32.484Z,23.67
2019-03-23T03:24:03.912Z,18.10
2019-03-23T03:26:35.595Z,21.70
2019-03-23T03:29:08.280Z,21.27
2019-03-23T03:31:39.955Z,22.57
2019-03-23T03:34:11.937Z,21.10
2019-03-23T03:36:43.419Z,21.47
2019-03-23T03:39:14.859Z,21.07
2019-03-23T03:41:46.538Z,21.20
2019-03-23T03:44:17.979Z,22.17
2019-03-23T03:46:49.661Z,19.17
2019-03-23T03:49:21.320Z,19.30
2019-03-23T03:51:52.988Z,20.63
2019-03-23T03:54:24.431Z,18.67
2019-03-23T03:56:56.188Z,19.87
2019-03-23T03:59:27.858Z,21.70
2019-03-23T04:01:59.281Z,22.77
2019-03-23T04:04:31.528Z,24.40
2019-03-23T04:07:03.248Z,23.10
2019-03-23T04:09:34.978Z,19.80
2019-03-23T04:12:06.478Z,25.40
2019-03-23T04:14:38.435Z,23.83
2019-03-23T04:17:18.456Z,21.20
2019-03-23T04:19:50.579Z,21.60
2019-03-23T04:22:22.243Z,19.97
2019-03-23T04:24:53.951Z,22.90
2019-03-23T04:27:25.615Z,19.30
2019-03-23T04:29:57.044Z,19.33
2019-03-23T04:32:28.713Z,19.77
2019-03-23T04:35:00.395Z,19.43
2019-03-23T04:37:32.084Z,19.07
2019-03-23T04:40:03.984Z,19.50
2019-03-23T04:42:35.651Z,20.63
2019-03-23T04:45:08.396Z,20.07
2019-03-23T04:47:40.072Z,20.37
2019-03-23T04:50:11.934Z,20.37
2019-03-23T04:52:44.771Z,20.03
2019-03-23T04:55:16.663Z,21.07
2019-03-23T04:57:48.320Z,21.13
2019-03-23T05:00:19.964Z,24.00
2019-03-23T05:02:51.795Z,22.90
2019-03-23T05:05:23.554Z,26.27
2019-03-23T05:07:54.975Z,24.47
2019-03-23T05:10:26.660Z,25.27
2019-03-23T05:12:58.564Z,25.53
2019-03-23T05:15:30.000Z,26.97
2019-03-23T05:18:01.519Z,26.00
2019-03-23T05:20:33.480Z,23.30
2019-03-23T05:23:05.216Z,23.90
2019-03-23T05:25:36.666Z,25.07
2019-03-23T05:28:08.086Z,26.33
2019-03-23T05:30:40.196Z,29.93
2019-03-23T05:33:12.182Z,28.40
2019-03-23T05:35:43.868Z,28.33
2019-03-23T05:38:15.290Z,29.07
2019-03-23T05:40:47.061Z,28.13
2019-03-23T05:43:18.497Z,30.43
2019-03-23T05:45:50.425Z,32.13
2019-03-23T05:48:22.100Z,30.47
2019-03-23T05:50:53.555Z,32.03
2019-03-23T05:53:25.223Z,30.00
2019-03-23T05:55:57.179Z,33.07
2019-03-23T05:58:28.894Z,31.70
2019-03-23T06:01:00.872Z,31.13
2019-03-23T06:03:32.563Z,31.87
2019-03-23T06:06:04.385Z,31.07
2019-03-23T06:08:36.057Z,33.50
2019-03-23T06:11:07.755Z,32.23
2019-03-23T06:13:39.711Z,32.93
2019-03-23T06:16:11.400Z,31.50
2019-03-23T06:18:43.109Z,31.10
2019-03-23T06:21:14.552Z,32.30
2019-03-23T06:23:46.228Z,30.57
2019-03-23T06:26:17.675Z,33.20
2019-03-23T06:28:49.356Z,32.70
2019-03-23T06:31:21.048Z,33.23
2019-03-23T06:33:53.008Z,33.43
2019-03-23T06:36:25.925Z,35.07
2019-03-23T06:39:05.210Z,32.07
2019-03-23T06:41:31.007Z,33.37
2019-03-23T06:44:02.679Z,32.83
2019-03-23T06:46:34.371Z,32.33
2019-03-23T06:49:05.810Z,31.33
2019-03-23T06:51:37.537Z,33.33
2019-03-23T06:54:09.211Z,32.47
2019-03-23T06:56:41.186Z,32.87
2019-03-23T06:59:12.855Z,32.23
2019-03-23T07:01:44.769Z,33.00
2019-03-23T07:04:28.548Z,32.27
2019-03-23T07:07:01.284Z,32.93
2019-03-23T07:09:34.567Z,33.37
2019-03-23T07:12:07.538Z,32.73
2019-03-23T07:14:40.523Z,32.80
2019-03-23T07:17:13.276Z,33.43
2019-03-23T07:19:46.268Z,32.63
2019-03-23T07:22:19.280Z,35.13
2019-03-23T07:24:53.687Z,34.23
2019-03-23T07:27:27.081Z,34.07
2019-03-23T07:30:00.052Z,33.53
2019-03-23T07:32:33.547Z,33.90
2019-03-23T07:35:06.831Z,33.20
2019-03-23T07:37:39.648Z,33.10
2019-03-23T07:40:17.128Z,33.67
2019-03-23T07:42:50.517Z,32.87
2019-03-23T07:45:23.495Z,34.20
2019-03-23T07:47:55.195Z,34.33
2019-03-23T07:50:44.399Z,33.73
2019-03-23T07:53:33.666Z,35.37
2019-03-23T07:56:23.135Z,35.90
2019-03-23T07:59:12.135Z,33.83
2019-03-23T08:02:01.629Z,34.43
2019-03-23T08:04:51.067Z,33.13
2019-03-23T08:07:23.018Z,33.23
2019-03-23T08:09:54.691Z,34.03
2019-03-23T08:12:26.123Z,30.97
2019-03-23T08:14:57.804Z,34.10
2019-03-23T08:17:29.255Z,31.50
2019-03-23T08:20:01.301Z,30.20
2019-03-23T08:22:33.053Z,32.40
2019-03-23T08:25:04.766Z,31.37
2019-03-23T08:27:36.439Z,30.10
2019-03-23T08:30:08.130Z,30.43
2019-03-23T08:32:39.892Z,30.10
2019-03-23T08:35:11.414Z,30.43
2019-03-23T08:37:43.077Z,30.60
2019-03-23T08:40:15.805Z,29.00
2019-03-23T08:42:47.271Z,29.33
2019-03-23T08:45:19.247Z,28.57
2019-03-23T08:47:50.674Z,29.60
2019-03-23T08:50:22.369Z,30.53
2019-03-23T08:52:54.039Z,27.97
2019-03-23T08:55:25.483Z,28.93
2019-03-23T08:57:57.151Z,27.53
2019-03-23T09:00:28.915Z,28.57
2019-03-23T09:03:00.604Z,28.60
2019-03-23T09:05:32.808Z,26.77
2019-03-23T09:08:04.563Z,28.10
2019-03-23T09:10:36.115Z,26.63
2019-03-23T09:13:08.599Z,26.27
2019-03-23T09:15:40.202Z,25.60
2019-03-23T09:18:12.172Z,28.57
2019-03-23T09:20:43.864Z,26.23
2019-03-23T09:23:15.547Z,25.70
2019-03-23T09:25:47.300Z,24.97
2019-03-23T09:28:19.054Z,26.83
2019-03-23T09:30:50.727Z,25.67
2019-03-23T09:33:22.167Z,25.23
2019-03-23T09:35:53.668Z,25.20
2019-03-23T09:38:25.336Z,24.67
2019-03-23T09:40:56.770Z,24.03
2019-03-23T09:43:28.435Z,25.10
2019-03-23T09:46:00.397Z,25.90
2019-03-23T09:48:32.094Z,25.00
2019-03-23T09:51:03.894Z,24.00
2019-03-23T09:53:35.568Z,23.97
2019-03-23T09:56:07.253Z,24.60
2019-03-23T09:58:39.220Z,24.37
2019-03-23T10:01:10.931Z,23.73
2019-03-23T10:03:42.984Z,23.20
2019-03-23T10:06:14.542Z,23.97
2019-03-23T10:08:46.514Z,22.87
2019-03-23T10:11:19.091Z,22.17
2019-03-23T10:13:50.813Z,22.67
2019-03-23T10:16:22.735Z,23.20
2019-03-23T10:18:54.174Z,23.53
2019-03-23T10:21:26.107Z,23.13
2019-03-23T10:23:58.326Z,23.40
2019-03-23T10:26:29.818Z,24.00
2019-03-23T10:29:01.489Z,24.57
2019-03-23T10:31:34.231Z,22.43
2019-03-23T10:34:06.005Z,24.40
2019-03-23T10:36:37.454Z,25.27
2019-03-23T10:39:09.127Z,26.40
2019-03-23T10:41:40.804Z,25.80
2019-03-23T10:44:12.547Z,26.50
2019-03-23T10:46:44.019Z,25.73
2019-03-23T10:49:15.821Z,27.27
2019-03-23T10:51:47.339Z,26.70
2019-03-23T10:54:19.049Z,25.63
2019-03-23T10:56:50.566Z,24.67
2019-03-23T10:59:22.505Z,24.57
2019-03-23T11:01:53.995Z,26.07
2019-03-23T11:04:25.758Z,23.97
2019-03-23T11:06:57.439Z,24.00
2019-03-23T11:09:29.127Z,23.43
2019-03-23T11:11:59.756Z,22.33
2019-03-23T11:14:31.456Z,24.10
2019-03-23T11:17:03.140Z,21.93
2019-03-23T11:19:34.825Z,22.43
2019-03-23T11:22:08.176Z,22.43
2019-03-23T11:24:40.151Z,20.90
2019-03-23T11:27:11.855Z,20.70
2019-03-23T11:29:43.823Z,22.70
2019-03-23T11:32:15.519Z,21.80
2019-03-23T11:34:48.271Z,20.67
2019-03-23T11:37:20.172Z,20.70
2019-03-23T11:39:52.575Z,23.77
2019-03-23T11:42:24.010Z,21.20
2019-03-23T11:44:55.809Z,22.10
2019-03-23T11:47:27.815Z,21.77
2019-03-23T11:49:59.750Z,20.87
2019-03-23T11:52:32.013Z,24.05
2019-03-23T11:55:03.867Z,20.57
2019-03-23T11:57:35.547Z,18.97
2019-03-23T12:00:09.893Z,16.80
2019-03-23T12:02:41.423Z,14.63
2019-03-23T12:05:13.300Z,15.80
2019-03-23T12:07:45.131Z,15.73
2019-03-23T12:10:16.795Z,12.93
2019-03-23T12:12:48.508Z,13.00
2019-03-23T12:15:20.341Z,10.83
2019-03-23T12:17:52.146Z,12.58
2019-03-23T12:20:23.591Z,9.20
2019-03-23T12:22:55.273Z,9.07
2019-03-23T12:25:27.199Z,9.00
2019-03-23T12:27:58.669Z,7.07
2019-03-23T12:30:30.145Z,6.80
2019-03-23T12:33:01.828Z,7.50
2019-03-23T12:35:33.262Z,8.03
2019-03-23T12:38:04.843Z,7.27
2019-03-23T12:40:36.632Z,6.10
2019-03-23T12:43:08.411Z,7.07
2019-03-23T12:45:39.847Z,5.43
2019-03-23T12:48:11.615Z,6.03
2019-03-23T12:50:43.536Z,5.37
2019-03-23T12:53:15.222Z,5.00
2019-03-23T12:55:46.895Z,5.27
2019-03-23T12:58:18.991Z,5.27
2019-03-23T13:00:50.660Z,5.33
2019-03-23T13:03:22.336Z,5.17
2019-03-23T13:05:54.091Z,5.00
2019-03-23T13:08:25.764Z,5.73
2019-03-23T13:10:57.445Z,5.17
2019-03-23T13:13:29.139Z,5.10
2019-03-23T13:16:00.812Z,5.67
2019-03-23T13:18:32.504Z,5.37
2019-03-23T13:21:04.253Z,5.90
2019-03-23T13:23:35.697Z,6.43
2019-03-23T13:26:07.444Z,5.30
2019-03-23T13:28:38.879Z,5.63
2019-03-23T13:31:10.827Z,5.80
2019-03-23T13:33:42.900Z,5.57
2019-03-23T13:36:14.583Z,5.30
2019-03-23T13:38:46.028Z,6.30
2019-03-23T13:41:18.024Z,5.77
2019-03-23T13:43:49.703Z,5.20
2019-03-23T13:46:21.361Z,5.50
2019-03-23T13:48:53.024Z,5.50
2019-03-23T13:51:25.740Z,6.17
2019-03-23T13:53:57.740Z,4.90
2019-03-23T13:56:29.404Z,4.90
2019-03-23T13:59:00.843Z,5.07
2019-03-23T14:01:32.258Z,4.50
2019-03-23T14:04:04.243Z,4.33
2019-03-23T14:06:35.926Z,3.90
2019-03-23T14:09:08.235Z,4.17
2019-03-23T14:11:40.233Z,4.07
2019-03-23T14:14:11.926Z,4.60
2019-03-23T14:16:43.616Z,4.73
2019-03-23T14:19:15.333Z,4.83
2019-03-23T14:21:47.003Z,5.07
2019-03-23T14:24:18.695Z,4.47
2019-03-23T14:26:50.719Z,3.97
2019-03-23T14:29:22.417Z,5.10
2019-03-23T14:31:54.092Z,4.70
2019-03-23T14:34:25.769Z,4.90
2019-03-23T14:36:57.455Z,4.70
2019-03-23T14:39:31.084Z,4.77
2019-03-23T14:42:05.143Z,4.20
2019-03-23T14:44:35.915Z,4.97
2019-03-23T14:47:07.671Z,4.07
2019-03-23T14:49:39.372Z,4.60
2019-03-23T14:52:10.802Z,4.07
2019-03-23T14:54:42.509Z,4.07
2019-03-23T14:57:13.930Z,3.53
2019-03-23T14:59:45.790Z,4.78
2019-03-23T15:02:17.627Z,3.73
2019-03-23T15:04:49.120Z,3.90
2019-03-23T15:07:21.407Z,3.97
2019-03-23T15:09:53.276Z,3.13
2019-03-23T15:12:24.952Z,2.80
2019-03-23T15:14:56.636Z,2.37
2019-03-23T15:17:28.575Z,2.73
2019-03-23T15:20:00.301Z,2.80
2019-03-23T15:22:32.260Z,2.40
2019-03-23T15:25:04.108Z,2.63
2019-03-23T15:27:35.759Z,2.53
2019-03-23T15:30:07.937Z,2.40
2019-03-23T15:32:39.666Z,2.43
2019-03-23T15:35:11.500Z,2.47
2019-03-23T15:37:42.934Z,2.13
2019-03-23T15:40:14.956Z,2.37
2019-03-23T15:42:46.382Z,1.80
2019-03-23T15:45:18.050Z,2.30
2019-03-23T15:47:49.716Z,2.10
2019-03-23T15:50:21.658Z,1.83
2019-03-23T15:52:53.337Z,2.20
2019-03-23T15:55:25.011Z,2.97
2019-03-23T15:57:56.676Z,2.57
2019-03-23T16:00:28.371Z,2.03
2019-03-23T16:03:00.047Z,2.67
2019-03-23T16:05:31.724Z,2.27
2019-03-23T16:08:03.472Z,2.47
2019-03-23T16:10:35.407Z,2.33
2019-03-23T16:13:07.085Z,2.57
2019-03-23T16:15:38.843Z,2.13
2019-03-23T16:18:10.785Z,2.10
2019-03-23T16:20:42.442Z,2.40
2019-03-23T16:23:13.878Z,2.40
2019-03-23T16:25:45.348Z,2.70
2019-03-23T16:28:17.514Z,2.43
2019-03-23T16:30:49.846Z,2.10
2019-03-23T16:33:21.584Z,1.93
2019-03-23T16:35:53.552Z,1.87
2019-03-23T16:38:33.043Z,2.27
2019-03-23T16:41:04.878Z,2.70
2019-03-23T16:43:39.931Z,2.53
2019-03-23T16:46:12.388Z,1.93
2019-03-23T16:48:45.840Z,2.17
2019-03-23T16:51:20.119Z,2.33
2019-03-23T16:53:51.787Z,1.87
2019-03-23T16:56:23.628Z,1.93
2019-03-23T16:58:55.454Z,2.10
2019-03-23T17:01:27.315Z,2.07
2019-03-23T17:03:58.866Z,2.17
2019-03-23T17:06:31.427Z,1.70
2019-03-23T17:09:04.031Z,2.40
2019-03-23T17:11:45.295Z,1.57
2019-03-23T17:14:16.974Z,2.27
2019-03-23T17:16:48.423Z,2.63
2019-03-23T17:19:20.367Z,2.07
2019-03-23T17:21:52.283Z,1.60
2019-03-23T17:24:23.975Z,2.10
2019-03-23T17:26:55.676Z,2.13
2019-03-23T17:29:27.346Z,2.77
2019-03-23T17:31:59.035Z,2.00
2019-03-23T17:34:30.710Z,2.97
2019-03-23T17:37:02.394Z,1.83
2019-03-23T17:39:34.069Z,2.33
2019-03-23T17:42:05.847Z,2.77
2019-03-23T17:44:37.282Z,2.17
2019-03-23T17:47:08.958Z,2.00
2019-03-23T17:49:40.664Z,2.63
2019-03-23T17:52:12.438Z,2.13
2019-03-23T17:54:44.747Z,2.10
2019-03-23T17:57:16.492Z,2.30
2019-03-23T17:59:49.311Z,2.63
2019-03-23T18:02:20.929Z,2.57
2019-03-23T18:04:52.606Z,2.87
2019-03-23T18:07:24.435Z,2.73
2019-03-23T18:09:56.107Z,3.40
2019-03-23T18:12:27.812Z,3.20
2019-03-23T18:14:59.607Z,2.40
2019-03-23T18:17:32.724Z,3.30
2019-03-23T18:20:04.568Z,3.37
2019-03-23T18:22:36.850Z,2.80
2019-03-23T18:25:09.199Z,3.33
2019-03-23T18:27:40.901Z,2.97
2019-03-23T18:30:40.776Z,3.23
2019-03-23T18:33:12.604Z,3.10
2019-03-23T18:35:44.186Z,2.90
2019-03-23T18:38:16.130Z,3.43
2019-03-23T18:40:47.808Z,2.90
2019-03-23T18:43:26.951Z,2.57
2019-03-23T18:45:52.719Z,2.57
2019-03-23T18:48:24.155Z,2.53
2019-03-23T18:50:55.895Z,2.43
2019-03-23T18:53:27.593Z,2.47
2019-03-23T18:55:59.497Z,2.37
2019-03-23T18:58:31.182Z,2.33
2019-03-23T19:01:02.863Z,2.43
2019-03-23T19:03:34.753Z,1.87
2019-03-23T19:06:06.545Z,2.07
2019-03-23T19:08:38.273Z,2.33
2019-03-23T19:11:10.575Z,2.50
2019-03-23T19:13:42.210Z,1.90
2019-03-23T19:16:13.676Z,2.57
2019-03-23T19:18:45.383Z,2.10
2019-03-23T19:21:17.181Z,2.53
2019-03-23T19:23:49.186Z,2.70
2019-03-23T19:26:21.747Z,2.30
2019-03-23T19:28:53.536Z,2.37
2019-03-23T19:31:25.256Z,2.30
2019-03-23T19:33:57.066Z,2.97
2019-03-23T19:36:30.477Z,2.27
2019-03-23T19:39:02.298Z,2.80
2019-03-23T19:41:34.045Z,2.97
2019-03-23T19:44:05.973Z,2.67
2019-03-23T19:46:37.511Z,3.07
2019-03-23T19:49:09.179Z,3.00
2019-03-23T19:51:40.604Z,3.23
2019-03-23T19:54:12.716Z,2.60
2019-03-23T19:56:44.427Z,3.20
2019-03-23T19:59:15.854Z,2.43
2019-03-23T20:01:47.554Z,2.90
2019-03-23T20:04:19.638Z,2.27
2019-03-23T20:06:51.354Z,2.00
2019-03-23T20:09:23.023Z,2.00
2019-03-23T20:11:54.479Z,2.60
2019-03-23T20:14:25.968Z,2.73
2019-03-23T20:16:58.002Z,2.67
2019-03-23T20:19:29.711Z,2.80
2019-03-23T20:22:01.724Z,2.23
2019-03-23T20:24:33.489Z,2.23
2019-03-23T20:27:05.240Z,2.50
2019-03-23T20:29:37.171Z,1.90
2019-03-23T20:32:09.254Z,2.47
2019-03-23T20:34:41.911Z,3.07
2019-03-23T20:37:13.692Z,2.47
2019-03-23T20:39:45.139Z,2.57
2019-03-23T20:42:16.822Z,2.37
2019-03-23T20:44:48.271Z,2.50
2019-03-23T20:47:19.765Z,2.67
2019-03-23T20:49:53.112Z,3.40
2019-03-23T20:52:24.634Z,2.40
2019-03-23T20:54:56.469Z,3.20
2019-03-23T20:57:37.421Z,3.37
2019-03-23T21:00:03.075Z,2.60
2019-03-23T21:02:34.587Z,2.93
2019-03-23T21:05:06.418Z,2.27
2019-03-23T21:07:38.136Z,2.63
2019-03-23T21:10:09.971Z,2.73
2019-03-23T21:12:41.415Z,2.80
2019-03-23T21:15:13.275Z,2.77
2019-03-23T21:17:51.197Z,2.50
2019-03-23T21:20:17.954Z,2.57
2019-03-23T21:22:50.739Z,2.30
2019-03-23T21:25:22.297Z,3.27
2019-03-23T21:27:53.722Z,2.30
2019-03-23T21:30:25.352Z,2.40
2019-03-23T21:32:56.815Z,2.57
2019-03-23T21:35:28.228Z,2.73
2019-03-23T21:37:59.783Z,2.63
2019-03-23T21:40:31.521Z,3.17
2019-03-23T21:43:03.265Z,2.33
2019-03-23T21:45:34.783Z,2.20
2019-03-23T21:48:06.591Z,2.37
2019-03-23T21:50:47.118Z,2.80
2019-03-23T21:53:11.909Z,1.87
2019-03-23T21:55:43.581Z,2.60
2019-03-23T21:58:15.779Z,2.70
2019-03-23T22:00:47.220Z,1.70
2019-03-23T22:03:18.902Z,3.80
2019-03-23T22:05:50.544Z,2.10
2019-03-23T22:08:22.207Z,2.53
2019-03-23T22:10:53.880Z,2.97
2019-03-23T22:13:25.548Z,2.07
2019-03-23T22:15:56.987Z,2.37
2019-03-23T22:18:28.733Z,1.80
2019-03-23T22:21:00.663Z,2.87
2019-03-23T22:23:32.594Z,2.07
2019-03-23T22:26:04.105Z,2.73
2019-03-23T22:28:36.104Z,2.70
2019-03-23T22:31:07.614Z,2.00
2019-03-23T22:33:39.535Z,2.30
2019-03-23T22:36:11.264Z,2.60
2019-03-23T22:38:42.916Z,1.93
2019-03-23T22:41:14.584Z,3.43
2019-03-23T22:43:47.036Z,4.40
2019-03-23T22:46:18.519Z,4.70
2019-03-23T22:48:50.484Z,3.70
2019-03-23T22:51:21.983Z,2.83
2019-03-23T22:53:55.268Z,2.27
2019-03-23T22:56:27.218Z,3.27
2019-03-23T22:58:58.915Z,2.87
2019-03-23T23:01:30.845Z,2.10
2019-03-23T23:04:02.491Z,2.93
2019-03-23T23:06:34.543Z,2.97
2019-03-23T23:09:08.979Z,2.47
2019-03-23T23:11:40.656Z,2.67
2019-03-23T23:14:13.929Z,2.20
2019-03-23T23:16:45.867Z,2.20
2019-03-23T23:19:17.348Z,2.10
2019-03-23T23:21:49.020Z,2.50
2019-03-23T23:24:20.685Z,2.67
2019-03-23T23:26:52.111Z,3.97
2019-03-23T23:29:24.956Z,4.60
2019-03-23T23:31:56.615Z,3.90
2019-03-23T23:34:28.286Z,3.43
2019-03-23T23:36:59.715Z,4.23
2019-03-23T23:39:33.152Z,3.83
2019-03-23T23:42:04.824Z,3.97
2019-03-23T23:44:37.045Z,4.67
2019-03-23T23:47:08.831Z,4.60
2019-03-23T23:49:40.757Z,4.67
2019-03-23T23:52:12.432Z,3.60
2019-03-23T23:54:44.083Z,3.57
2019-03-23T23:57:15.507Z,3.33
2019-03-23T23:59:47.179Z,4.27
